Time;durP1;ratioP1;P1;durP2;ratioP2;P2;SDS_P1;SDS_P2;PMS_P1;PMS_P2;Temp;Humidity;BMP_temperature;BMP_pressure;BME280_temperature;BME280_humidity;BME280_pressure;Samples;Min_cycle;Max_cycle;Signal;HPM_P1;HPM_P2
2022/07/04 00:00:19;;;;;;;4.10;2.87;;;23.30;99.90;;;;;;4989203;28;20193;-67
2022/07/04 00:02:46;;;;;;;3.07;2.80;;;23.20;99.90;;;;;;4989453;28;20260;-67
2022/07/04 00:05:12;;;;;;;3.50;3.20;;;23.30;99.90;;;;;;4989572;28;20877;-66
2022/07/04 00:07:43;;;;;;;5.73;3.60;;;23.40;99.90;;;;;;4987277;28;20936;-65
2022/07/04 00:10:14;;;;;;;3.33;3.03;;;23.40;99.90;;;;;;4989017;28;20892;-66
2022/07/04 00:12:41;;;;;;;4.60;3.10;;;23.40;99.90;;;;;;4989342;28;20543;-67
2022/07/04 00:15:07;;;;;;;4.70;2.90;;;23.40;99.90;;;;;;4990211;28;20936;-66
2022/07/04 00:17:33;;;;;;;4.43;3.00;;;23.40;99.90;;;;;;4989976;28;20471;-66
2022/07/04 00:19:59;;;;;;;5.90;3.00;;;23.40;99.90;;;;;;4991943;28;20804;-67
2022/07/04 00:22:25;;;;;;;4.80;3.30;;;23.40;99.90;;;;;;4994501;28;20625;-67
2022/07/04 00:24:51;;;;;;;4.83;3.17;;;23.30;99.90;;;;;;4995193;28;20169;-66
2022/07/04 00:27:16;;;;;;;4.63;3.00;;;23.40;99.90;;;;;;4996257;28;20248;-67
2022/07/04 00:29:42;;;;;;;9.37;3.67;;;23.40;99.90;;;;;;4992616;28;20204;-67
2022/07/04 00:32:08;;;;;;;9.67;3.47;;;23.50;99.90;;;;;;4993765;28;20177;-67
2022/07/04 00:34:34;;;;;;;10.00;3.63;;;23.60;99.90;;;;;;5011490;28;20196;-67
2022/07/04 00:36:59;;;;;;;7.47;2.70;;;23.60;99.90;;;;;;5018975;28;20483;-69
2022/07/04 00:39:25;;;;;;;3.60;3.00;;;23.60;99.90;;;;;;5022975;28;20184;-66
2022/07/04 00:41:51;;;;;;;3.73;2.67;;;23.50;99.90;;;;;;5022358;28;20172;-66
2022/07/04 00:44:17;;;;;;;3.17;2.87;;;23.30;99.90;;;;;;4991375;28;20169;-67
2022/07/04 00:46:44;;;;;;;4.07;3.67;;;23.10;99.90;;;;;;4989523;28;20211;-66
2022/07/04 00:49:12;;;;;;;3.77;3.00;;;22.80;99.90;;;;;;4988663;28;20260;-67
2022/07/04 00:51:39;;;;;;;4.13;3.30;;;22.80;99.90;;;;;;4989149;28;20416;-68
2022/07/04 00:54:06;;;;;;;6.27;3.07;;;22.80;99.90;;;;;;4989538;28;20424;-68
2022/07/04 00:56:32;;;;;;;3.47;3.17;;;22.70;99.90;;;;;;4988635;28;20986;-68
2022/07/04 00:58:59;;;;;;;8.77;3.40;;;22.60;99.90;;;;;;4988115;28;20646;-66
2022/07/04 01:01:25;;;;;;;5.10;3.17;;;22.60;99.90;;;;;;4989525;28;20200;-67
2022/07/04 01:03:51;;;;;;;10.50;3.07;;;22.60;99.90;;;;;;4989481;28;21277;-67
2022/07/04 01:06:19;;;;;;;6.70;2.83;;;22.80;99.90;;;;;;4988622;28;20504;-68
2022/07/04 01:08:45;;;;;;;4.23;2.87;;;22.90;99.90;;;;;;4987903;28;20192;-68
2022/07/04 01:11:11;;;;;;;4.70;3.17;;;22.90;99.90;;;;;;4988967;28;20438;-67
2022/07/04 01:13:37;;;;;;;5.30;3.20;;;22.90;99.90;;;;;;4988739;28;20515;-67
2022/07/04 01:16:04;;;;;;;3.47;3.17;;;23.00;99.90;;;;;;4993379;28;20426;-68
2022/07/04 01:18:30;;;;;;;7.10;2.93;;;23.10;99.90;;;;;;4992282;28;20203;-67
2022/07/04 01:20:56;;;;;;;6.00;2.87;;;23.10;99.90;;;;;;4992820;28;20441;-67
2022/07/04 01:23:21;;;;;;;4.17;2.90;;;23.10;99.90;;;;;;4992935;28;20412;-67
2022/07/04 01:25:48;;;;;;;3.90;3.60;;;23.00;99.90;;;;;;4992740;28;20173;-66
2022/07/04 01:28:14;;;;;;;8.53;3.20;;;23.00;99.90;;;;;;4993216;28;20188;-68
2022/07/04 01:30:39;;;;;;;3.87;3.23;;;23.00;99.90;;;;;;4996832;28;20463;-68
2022/07/04 01:33:05;;;;;;;6.77;3.40;;;23.00;99.90;;;;;;5006723;28;20203;-66
2022/07/04 01:35:31;;;;;;;3.40;3.10;;;22.80;99.90;;;;;;5012930;28;20644;-66
2022/07/04 01:37:57;;;;;;;7.93;2.77;;;22.80;99.90;;;;;;5011723;28;20196;-67
2022/07/04 01:40:23;;;;;;;3.40;2.87;;;22.80;99.90;;;;;;5011236;28;20180;-67
2022/07/04 01:42:49;;;;;;;5.83;3.00;;;22.70;99.90;;;;;;5002661;28;21056;-67
2022/07/04 01:45:15;;;;;;;15.87;3.80;;;22.70;99.90;;;;;;4992725;28;20498;-65
2022/07/04 01:47:41;;;;;;;3.87;3.07;;;22.70;99.90;;;;;;4992181;28;20503;-67
2022/07/04 01:50:09;;;;;;;6.50;4.03;;;22.80;99.90;;;;;;4992318;28;20192;-67
2022/07/04 01:52:35;;;;;;;8.50;3.70;;;22.80;99.90;;;;;;4992549;28;21006;-68
2022/07/04 01:55:01;;;;;;;4.83;3.03;;;22.80;99.90;;;;;;4992225;28;21025;-68
2022/07/04 01:57:27;;;;;;;3.90;2.83;;;22.80;99.90;;;;;;4992487;28;20451;-67
2022/07/04 02:02:37;;;;;;;4.20;3.03;;;22.90;99.90;;;;;;4992509;28;20211;-67
2022/07/04 02:05:04;;;;;;;3.00;2.73;;;22.90;99.90;;;;;;4992505;28;20409;-67
2022/07/04 02:07:30;;;;;;;12.10;3.37;;;22.90;99.90;;;;;;4991688;28;20248;-67
2022/07/04 02:09:55;;;;;;;4.60;3.10;;;22.90;99.90;;;;;;4991025;28;20992;-68
2022/07/04 02:15:06;;;;;;;7.17;3.50;;;22.90;99.90;;;;;;4992096;28;20211;-67
2022/07/04 02:17:33;;;;;;;11.10;3.20;;;23.00;99.90;;;;;;4991140;28;20455;-67
2022/07/04 02:19:59;;;;;;;5.27;3.03;;;22.90;99.90;;;;;;4991538;28;20957;-67
2022/07/04 02:22:24;;;;;;;2.93;2.50;;;22.80;99.90;;;;;;4991404;28;20459;-67
2022/07/04 02:24:50;;;;;;;8.30;3.30;;;22.80;99.90;;;;;;4991585;28;20265;-67
2022/07/04 02:27:16;;;;;;;5.70;3.47;;;22.80;99.90;;;;;;4990493;28;20292;-65
2022/07/04 02:29:42;;;;;;;12.67;3.20;;;22.80;99.90;;;;;;4990674;28;20200;-67
2022/07/04 02:32:08;;;;;;;4.00;3.17;;;22.80;99.90;;;;;;4993154;28;20173;-68
2022/07/04 02:34:34;;;;;;;4.23;3.13;;;22.80;99.90;;;;;;5011251;28;20434;-68
2022/07/04 02:36:59;;;;;;;6.63;3.10;;;22.80;99.90;;;;;;5010616;28;20576;-68
2022/07/04 02:39:25;;;;;;;6.73;3.77;;;22.80;99.90;;;;;;5010293;28;20208;-66
2022/07/04 02:41:51;;;;;;;6.60;2.70;;;22.80;99.90;;;;;;5009525;28;20164;-67
2022/07/04 02:44:16;;;;;;;3.63;2.73;;;22.80;99.90;;;;;;4990900;28;20177;-67
2022/07/04 02:46:42;;;;;;;6.40;2.80;;;22.80;99.90;;;;;;4991544;28;20196;-66
2022/07/04 02:49:08;;;;;;;3.83;2.97;;;22.90;99.90;;;;;;4990686;28;20276;-67
2022/07/04 02:51:34;;;;;;;9.87;3.47;;;22.90;99.90;;;;;;4990787;28;20176;-68
2022/07/04 02:54:00;;;;;;;6.77;3.80;;;22.90;99.90;;;;;;4991686;28;20500;-67
2022/07/04 02:56:26;;;;;;;16.90;3.77;;;22.90;99.90;;;;;;4990997;28;20548;-66
2022/07/04 02:58:51;;;;;;;8.00;2.60;;;22.80;99.90;;;;;;4990675;28;20207;-68
2022/07/04 03:01:19;;;;;;;11.00;3.17;;;22.70;99.90;;;;;;4992107;28;20554;-66
2022/07/04 03:03:45;;;;;;;12.40;4.30;;;22.60;99.90;;;;;;4991866;28;20181;-68
2022/07/04 03:06:12;;;;;;;10.40;3.43;;;22.60;99.90;;;;;;4991982;28;20408;-67
2022/07/04 03:08:38;;;;;;;5.67;3.20;;;22.60;99.90;;;;;;4991174;28;20807;-66
2022/07/04 03:11:04;;;;;;;12.33;3.77;;;22.50;99.90;;;;;;4990882;28;20412;-67
2022/07/04 03:13:29;;;;;;;9.30;3.70;;;22.40;99.90;;;;;;4990873;28;20204;-67
2022/07/04 03:15:55;;;;;;;13.67;4.17;;;22.30;99.90;;;;;;4991651;28;20438;-67
2022/07/04 03:18:21;;;;;;;12.70;4.60;;;22.30;99.90;;;;;;4990406;28;20614;-67
2022/07/04 03:20:47;;;;;;;6.20;3.37;;;22.30;99.90;;;;;;4991225;28;20232;-67
2022/07/04 03:23:13;;;;;;;24.27;5.47;;;22.20;99.90;;;;;;4990289;28;20175;-67
2022/07/04 03:25:39;;;;;;;28.43;5.70;;;22.20;99.90;;;;;;4989858;28;20276;-69
2022/07/04 03:28:06;;;;;;;9.50;4.13;;;22.10;99.90;;;;;;4990033;28;20419;-68
2022/07/04 03:30:32;;;;;;;5.93;4.33;;;22.00;99.90;;;;;;4990409;28;20444;-65
2022/07/04 03:32:58;;;;;;;11.57;4.10;;;21.90;99.90;;;;;;4998294;28;20434;-65
2022/07/04 03:35:24;;;;;;;14.27;3.87;;;21.80;99.90;;;;;;5010098;28;20449;-67
2022/07/04 03:37:50;;;;;;;23.80;4.40;;;21.90;99.90;;;;;;5008443;28;20192;-66
2022/07/04 03:40:16;;;;;;;9.77;3.97;;;21.90;99.90;;;;;;5009305;28;20192;-67
2022/07/04 03:42:42;;;;;;;7.20;2.93;;;21.90;99.90;;;;;;5000393;28;20487;-66
2022/07/04 03:45:08;;;;;;;6.57;3.23;;;21.80;99.90;;;;;;4990579;28;20408;-66
2022/07/04 03:47:34;;;;;;;6.60;3.70;;;21.60;99.90;;;;;;4989773;28;20606;-67
2022/07/04 03:50:00;;;;;;;10.23;4.10;;;21.40;99.90;;;;;;4990155;28;20594;-65
2022/07/04 03:52:26;;;;;;;17.27;3.80;;;21.60;99.90;;;;;;4988476;28;20173;-67
2022/07/04 03:54:51;;;;;;;35.27;8.03;;;21.60;99.90;;;;;;4989499;28;20184;-67
2022/07/04 03:57:17;;;;;;;25.20;6.40;;;21.80;99.90;;;;;;4989736;28;20172;-67
2022/07/04 03:59:43;;;;;;;26.57;5.83;;;21.80;99.90;;;;;;4989268;28;20271;-66
2022/07/04 04:02:08;;;;;;;14.90;4.70;;;21.90;99.90;;;;;;4990315;28;20503;-66
2022/07/04 04:07:18;;;;;;;24.63;5.80;;;21.80;99.90;;;;;;4989318;28;20644;-67
2022/07/04 04:09:44;;;;;;;11.00;4.07;;;21.90;99.90;;;;;;4989594;28;20436;-67
2022/07/04 04:12:09;;;;;;;8.50;4.03;;;22.00;99.90;;;;;;4990122;28;20187;-67
2022/07/04 04:14:35;;;;;;;5.83;3.93;;;22.00;99.90;;;;;;4990453;28;20628;-67
2022/07/04 04:17:01;;;;;;;12.70;4.43;;;21.90;99.90;;;;;;4995948;28;20218;-66
2022/07/04 04:19:26;;;;;;;20.57;5.80;;;21.90;99.90;;;;;;4995902;28;20200;-67
2022/07/04 04:21:52;;;;;;;14.23;5.40;;;22.00;99.90;;;;;;4997734;28;20169;-67
2022/07/04 04:24:18;;;;;;;24.40;4.97;;;22.10;99.90;;;;;;4999852;28;20168;-67
2022/07/04 04:26:44;;;;;;;15.40;4.40;;;22.10;99.90;;;;;;4997721;28;20338;-68
2022/07/04 04:29:09;;;;;;;14.43;4.30;;;22.00;99.90;;;;;;5001247;28;20208;-66
2022/07/04 04:31:35;;;;;;;16.13;5.13;;;22.00;99.90;;;;;;4996286;28;20427;-68
2022/07/04 04:34:01;;;;;;;20.77;4.73;;;22.00;99.90;;;;;;4993844;28;20192;-66
2022/07/04 04:36:27;;;;;;;39.53;6.63;;;22.10;99.90;;;;;;4986632;28;20421;-66
2022/07/04 04:38:53;;;;;;;8.00;3.47;;;22.10;99.90;;;;;;4976797;28;20220;-67
2022/07/04 04:41:18;;;;;;;8.40;4.17;;;22.10;99.90;;;;;;4983261;28;20176;-70
2022/07/04 04:43:44;;;;;;;30.13;6.20;;;21.80;99.90;;;;;;4987535;28;20666;-67
2022/07/04 04:46:10;;;;;;;15.27;5.00;;;21.80;99.90;;;;;;4989766;28;20177;-68
2022/07/04 04:48:35;;;;;;;29.23;6.23;;;21.80;99.90;;;;;;4989554;28;20191;-68
2022/07/04 04:51:01;;;;;;;12.87;5.17;;;21.90;99.90;;;;;;4988910;28;20188;-68
2022/07/04 04:53:27;;;;;;;14.70;4.87;;;21.90;99.90;;;;;;4986908;28;20326;-68
2022/07/04 04:55:54;;;;;;;17.27;4.90;;;21.90;99.90;;;;;;4988210;28;20185;-68
2022/07/04 04:58:20;;;;;;;14.50;4.20;;;21.80;99.90;;;;;;4987892;28;20669;-68
2022/07/04 05:00:48;;;;;;;15.50;4.57;;;21.80;99.90;;;;;;4988565;28;20434;-67
2022/07/04 05:03:13;;;;;;;11.40;4.43;;;21.70;99.90;;;;;;4989491;28;20448;-66
2022/07/04 05:05:39;;;;;;;9.80;4.13;;;21.70;99.90;;;;;;4989726;28;20468;-67
2022/07/04 05:08:05;;;;;;;5.63;3.40;;;21.70;99.90;;;;;;4989155;28;20268;-67
2022/07/04 05:10:31;;;;;;;13.73;4.30;;;21.60;99.90;;;;;;4988878;28;20254;-67
2022/07/04 05:12:57;;;;;;;22.23;5.20;;;21.70;99.90;;;;;;4991896;28;20181;-67
2022/07/04 05:15:23;;;;;;;13.90;4.53;;;21.60;99.90;;;;;;4993373;28;20420;-67
2022/07/04 05:17:48;;;;;;;27.73;5.37;;;21.50;99.90;;;;;;4995437;28;20653;-67
2022/07/04 05:20:14;;;;;;;28.47;5.87;;;21.60;99.90;;;;;;4986497;28;20203;-68
2022/07/04 05:22:40;;;;;;;10.87;5.60;;;21.60;1.00;;;;;;4993678;28;20176;-67
2022/07/04 05:25:06;;;;;;;11.43;5.20;;;21.60;1.00;;;;;;4994016;28;20223;-69
2022/07/04 05:27:32;;;;;;;11.20;4.80;;;21.50;1.00;;;;;;4990731;28;20819;-67
2022/07/04 05:29:58;;;;;;;5.67;4.23;;;21.40;1.00;;;;;;4995577;28;20475;-67
2022/07/04 05:32:25;;;;;;;9.13;3.93;;;21.50;1.00;;;;;;5017502;28;20252;-69
2022/07/04 05:34:51;;;;;;;9.33;4.27;;;21.50;1.00;;;;;;5000942;28;20448;-68
2022/07/04 05:37:17;;;;;;;8.73;5.17;;;21.50;1.00;;;;;;5001440;28;20423;-69
2022/07/04 05:39:43;;;;;;;10.43;5.90;;;21.50;1.00;;;;;;4990909;28;20453;-68
2022/07/04 05:42:08;;;;;;;11.00;5.00;;;21.70;1.00;;;;;;4982474;28;20284;-66
2022/07/04 05:44:34;;;;;;;12.00;4.17;;;21.60;1.00;;;;;;4984045;28;20177;-69
2022/07/04 05:47:00;;;;;;;10.20;5.00;;;21.90;1.00;;;;;;4987003;28;20191;-68
2022/07/04 05:49:26;;;;;;;7.03;4.50;;;21.90;1.00;;;;;;4986932;28;20606;-67
2022/07/04 05:51:51;;;;;;;10.53;4.70;;;21.80;1.00;;;;;;4986871;28;20252;-67
2022/07/04 05:54:17;;;;;;;25.40;5.80;;;21.80;1.00;;;;;;4987421;28;20185;-68
2022/07/04 05:56:43;;;;;;;20.03;5.70;;;21.90;1.00;;;;;;4986429;28;20260;-69
2022/07/04 05:59:09;;;;;;;11.77;5.70;;;22.00;1.00;;;;;;4981967;28;20773;-69
2022/07/04 06:01:36;;;;;;;20.23;5.60;;;22.00;99.90;;;;;;4988506;28;20177;-68
2022/07/04 06:04:02;;;;;;;16.03;5.60;;;22.00;99.90;;;;;;4989943;28;20947;-67
2022/07/04 06:06:28;;;;;;;16.30;5.30;;;21.90;99.90;;;;;;4990456;28;20504;-67
2022/07/04 06:08:53;;;;;;;17.30;4.53;;;22.00;99.90;;;;;;4988938;28;20937;-66
2022/07/04 06:11:19;;;;;;;16.23;5.00;;;22.20;99.90;;;;;;4989842;28;20228;-68
2022/07/04 06:13:45;;;;;;;26.17;6.30;;;22.30;99.90;;;;;;4989800;28;20192;-69
2022/07/04 06:16:10;;;;;;;12.93;4.67;;;22.40;99.90;;;;;;4989979;28;20219;-67
2022/07/04 06:18:36;;;;;;;12.73;4.17;;;22.40;99.90;;;;;;4988721;28;20280;-68
2022/07/04 06:21:01;;;;;;;11.83;4.60;;;22.50;99.90;;;;;;4989777;28;20176;-69
2022/07/04 06:23:27;;;;;;;22.63;5.43;;;22.40;99.90;;;;;;4990232;28;20584;-67
2022/07/04 06:25:53;;;;;;;16.70;5.60;;;22.50;99.90;;;;;;4990088;28;20165;-69
2022/07/04 06:28:18;;;;;;;9.90;4.73;;;22.60;99.90;;;;;;4989015;28;20165;-68
2022/07/04 06:30:44;;;;;;;13.60;6.80;;;22.60;99.90;;;;;;4989850;28;20264;-68
2022/07/04 06:33:10;;;;;;;15.17;4.80;;;22.60;99.90;;;;;;4999197;28;20278;-67
2022/07/04 06:35:45;;;;;;;20.57;5.40;;;22.60;99.90;;;;;;4996691;28;20257;-67
2022/07/04 06:38:16;;;;;;;5.20;3.70;;;22.60;99.90;;;;;;4978710;28;20750;-66
2022/07/04 06:40:42;;;;;;;46.77;8.63;;;22.50;99.90;;;;;;4977663;28;20432;-68
2022/07/04 06:43:08;;;;;;;34.73;5.63;;;22.60;99.90;;;;;;4984950;28;20450;-70
2022/07/04 06:45:34;;;;;;;11.93;4.87;;;22.60;99.90;;;;;;4991745;28;20924;-68
2022/07/04 06:48:04;;;;;;;12.23;3.60;;;22.50;99.90;;;;;;4991082;28;20514;-68
2022/07/04 06:50:33;;;;;;;19.47;5.00;;;22.60;99.90;;;;;;4990463;28;20193;-68
2022/07/04 06:53:04;;;;;;;8.53;4.03;;;22.60;99.90;;;;;;4991802;28;20408;-69
2022/07/04 06:55:34;;;;;;;11.50;5.13;;;22.70;99.90;;;;;;4990669;28;20468;-69
2022/07/04 06:58:00;;;;;;;8.47;4.33;;;22.90;99.90;;;;;;4989551;28;20543;-69
2022/07/04 07:00:26;;;;;;;6.30;4.00;;;22.90;99.90;;;;;;4990980;28;20455;-68
2022/07/04 07:02:52;;;;;;;5.13;4.00;;;23.00;99.90;;;;;;4991596;28;20693;-70
2022/07/04 07:05:17;;;;;;;9.83;4.20;;;23.00;99.90;;;;;;4991682;28;20171;-69
2022/07/04 07:07:43;;;;;;;14.67;5.00;;;23.10;99.90;;;;;;4990715;28;20383;-69
2022/07/04 07:10:09;;;;;;;7.83;4.10;;;23.10;99.90;;;;;;4989525;28;20255;-68
2022/07/04 07:12:35;;;;;;;14.73;6.60;;;23.10;99.90;;;;;;4991055;28;20169;-68
2022/07/04 07:15:02;;;;;;;26.07;5.40;;;23.20;99.90;;;;;;4991286;28;20241;-68
2022/07/04 07:17:28;;;;;;;16.93;5.10;;;23.20;99.90;;;;;;4990743;28;20412;-69
2022/07/04 07:19:54;;;;;;;12.27;4.40;;;23.30;99.90;;;;;;4990069;28;20431;-70
2022/07/04 07:22:20;;;;;;;23.20;5.10;;;23.30;99.90;;;;;;4990253;28;20307;-69
2022/07/04 07:24:46;;;;;;;11.10;5.33;;;23.50;99.90;;;;;;4990749;28;20930;-69
2022/07/04 07:27:12;;;;;;;7.90;5.60;;;23.70;99.90;;;;;;4990283;28;20176;-70
2022/07/04 07:29:38;;;;;;;18.07;6.20;;;23.80;99.90;;;;;;4989768;28;20284;-69
2022/07/04 07:32:05;;;;;;;13.17;4.63;;;23.90;99.90;;;;;;4991156;28;20761;-69
2022/07/04 07:34:31;;;;;;;12.63;4.73;;;24.00;99.90;;;;;;5010209;28;20837;-69
2022/07/04 07:36:57;;;;;;;14.07;4.80;;;24.20;99.90;;;;;;5009290;28;20550;-68
2022/07/04 07:39:23;;;;;;;14.33;4.60;;;24.30;99.90;;;;;;5009759;28;20461;-67
2022/07/04 07:41:48;;;;;;;8.53;4.40;;;24.20;99.90;;;;;;5008633;28;20181;-68
2022/07/04 07:44:14;;;;;;;16.97;4.50;;;24.20;99.90;;;;;;4990137;28;20560;-69
2022/07/04 07:46:40;;;;;;;10.30;5.37;;;24.30;99.90;;;;;;4990343;28;20172;-68
2022/07/04 07:49:06;;;;;;;22.27;5.07;;;24.10;99.90;;;;;;4989139;28;20467;-68
2022/07/04 07:51:32;;;;;;;6.93;4.30;;;24.00;99.90;;;;;;4989713;28;20756;-68
2022/07/04 07:53:58;;;;;;;4.67;4.00;;;24.10;99.90;;;;;;4991695;28;20169;-68
2022/07/04 07:56:23;;;;;;;4.20;3.67;;;24.20;99.90;;;;;;4995541;28;20177;-68
2022/07/04 07:58:50;;;;;;;13.53;5.07;;;24.30;99.90;;;;;;4993487;28;20203;-68
2022/07/04 08:01:15;;;;;;;19.10;4.67;;;24.70;99.90;;;;;;4992324;28;20197;-67
2022/07/04 08:06:25;;;;;;;49.03;7.70;;;25.20;99.90;;;;;;4990849;28;20614;-68
2022/07/04 08:08:51;;;;;;;8.50;3.90;;;25.50;99.90;;;;;;4989338;28;20432;-68
2022/07/04 08:11:17;;;;;;;12.53;5.20;;;25.60;99.90;;;;;;4990177;28;20169;-67
2022/07/04 08:13:43;;;;;;;9.77;4.00;;;25.80;99.90;;;;;;4990437;28;20173;-68
2022/07/04 08:16:09;;;;;;;8.07;3.83;;;25.90;99.90;;;;;;4990798;28;20408;-68
2022/07/04 08:18:35;;;;;;;14.60;4.67;;;26.00;99.90;;;;;;4989644;28;20262;-68
2022/07/04 08:21:01;;;;;;;19.67;4.40;;;26.30;99.90;;;;;;4989994;28;20408;-68
2022/07/04 08:23:31;;;;;;;11.03;3.97;;;26.40;99.90;;;;;;4989475;28;20169;-68
2022/07/04 08:25:58;;;;;;;8.70;4.07;;;26.40;99.90;;;;;;4989400;28;20165;-68
2022/07/04 08:28:23;;;;;;;24.73;4.53;;;26.40;99.90;;;;;;4988839;28;20635;-68
2022/07/04 08:30:49;;;;;;;11.10;4.50;;;26.40;99.90;;;;;;4985206;28;20540;-68
2022/07/04 08:33:15;;;;;;;11.60;4.40;;;26.60;99.90;;;;;;4990896;28;20625;-68
2022/07/04 08:35:40;;;;;;;5.73;4.00;;;26.60;99.90;;;;;;5009066;28;20585;-68
2022/07/04 08:38:06;;;;;;;28.47;4.50;;;26.70;99.90;;;;;;5008342;28;20288;-68
2022/07/04 08:40:33;;;;;;;20.20;5.10;;;26.70;99.90;;;;;;5009227;28;20188;-68
2022/07/04 08:43:01;;;;;;;17.77;4.90;;;26.70;99.90;;;;;;4998207;28;20296;-68
2022/07/04 08:45:29;;;;;;;9.90;3.70;;;26.70;99.90;;;;;;4989768;28;20745;-68
2022/07/04 08:48:01;;;;;;;7.53;4.37;;;26.30;99.90;;;;;;4989497;28;20470;-68
2022/07/04 08:50:33;;;;;;;7.60;3.20;;;26.30;99.90;;;;;;4989110;28;20454;-68
2022/07/04 08:53:02;;;;;;;6.30;3.30;;;26.20;99.90;;;;;;4989238;28;20428;-68
2022/07/04 09:01:14;;;;;;;3.83;3.30;;;26.70;99.90;;;;;;4967129;28;20421;-68
2022/07/04 09:03:44;;;;;;;6.97;3.37;;;26.50;99.90;;;;;;4989314;28;20407;-68
2022/07/04 09:06:11;;;;;;;5.23;3.20;;;26.40;99.90;;;;;;4989106;28;20408;-69
2022/07/04 09:08:38;;;;;;;9.83;3.03;;;26.70;99.90;;;;;;4988230;28;20506;-68
2022/07/04 09:11:05;;;;;;;15.93;3.57;;;26.60;99.90;;;;;;4989159;28;20506;-69
2022/07/04 09:13:31;;;;;;;5.43;3.30;;;27.00;99.90;;;;;;4988774;28;20415;-68
2022/07/04 09:15:57;;;;;;;5.37;3.43;;;27.30;99.90;;;;;;4988917;28;20495;-68
2022/07/04 09:18:29;;;;;;;9.23;2.93;;;27.40;99.90;;;;;;4987781;28;20594;-68
2022/07/04 09:21:03;;;;;;;5.20;3.30;;;27.20;99.90;;;;;;4981306;28;20707;-69
2022/07/04 09:23:31;;;;;;;7.97;2.90;;;27.40;99.90;;;;;;4989018;28;20781;-69
2022/07/04 09:26:15;;;;;;;5.53;3.20;;;27.60;99.90;;;;;;4988792;28;20454;-69
2022/07/04 09:28:59;;;;;;;6.57;3.50;;;27.60;99.90;;;;;;4987212;28;20919;-69
2022/07/04 09:31:31;;;;;;;9.53;3.67;;;26.80;99.90;;;;;;4998822;23;20487;-70
2022/07/04 09:34:04;;;;;;;8.90;3.80;;;26.50;99.90;;;;;;4970312;28;20847;-69
2022/07/04 09:36:32;;;;;;;10.17;3.97;;;26.70;99.90;;;;;;4970791;28;20975;-71
2022/07/04 09:39:09;;;;;;;7.37;3.37;;;26.70;99.90;;;;;;4972782;28;20598;-70
2022/07/04 09:41:53;;;;;;;13.63;3.80;;;26.30;99.90;;;;;;4971969;28;20440;-70
2022/07/04 09:44:20;;;;;;;10.20;4.27;;;26.10;99.90;;;;;;4954184;28;20406;-69
2022/07/04 09:46:46;;;;;;;14.60;5.30;;;26.10;99.90;;;;;;4954126;29;20408;-70
2022/07/04 09:49:12;;;;;;;7.83;3.60;;;26.00;99.90;;;;;;4953208;28;20417;-70
2022/07/04 09:51:49;;;;;;;4.80;3.60;;;25.90;99.90;;;;;;4953628;28;20421;-72
2022/07/04 09:54:31;;;;;;;7.70;4.10;;;26.00;99.90;;;;;;4954105;28;20170;-71
2022/07/04 09:57:00;;;;;;;8.17;4.07;;;26.30;99.90;;;;;;4953633;28;20410;-72
2022/07/04 09:59:27;;;;;;;4.50;3.57;;;26.50;99.90;;;;;;4965930;28;21035;-68
2022/07/04 10:02:07;;;;;;;4.90;3.20;;;26.60;99.90;;;;;;4973349;28;20431;-71
2022/07/04 10:04:52;;;;;;;14.83;4.10;;;26.70;99.90;;;;;;4973757;28;20428;-72
2022/07/04 10:07:50;;;;;;;5.50;3.37;;;26.80;99.90;;;;;;4972200;28;20409;-70
2022/07/04 10:10:27;;;;;;;10.10;4.00;;;27.00;99.90;;;;;;4960532;28;20466;-70
2022/07/04 10:12:56;;;;;;;6.70;3.30;;;27.20;99.90;;;;;;4972726;28;20822;-71
2022/07/04 10:15:22;;;;;;;6.93;3.20;;;27.10;99.90;;;;;;4973188;28;20496;-71
2022/07/04 10:17:49;;;;;;;6.60;3.77;;;26.90;99.90;;;;;;4972860;28;20486;-72
2022/07/04 10:20:15;;;;;;;4.93;3.83;;;26.90;99.90;;;;;;4975255;28;20425;-71
2022/07/04 10:22:41;;;;;;;4.23;3.83;;;26.90;99.90;;;;;;4989920;28;20499;-71
2022/07/04 10:25:08;;;;;;;6.60;3.60;;;26.70;99.90;;;;;;4992498;28;20535;-69
2022/07/04 10:27:35;;;;;;;24.93;6.90;;;26.40;99.90;;;;;;4990511;28;20238;-70
2022/07/04 10:30:04;;;;;;;37.00;5.70;;;26.40;99.90;;;;;;4991061;28;20484;-72
2022/07/04 10:32:32;;;;;;;7.20;3.43;;;26.60;99.90;;;;;;4974624;28;20494;-71
2022/07/04 10:34:58;;;;;;;5.63;3.53;;;27.00;99.90;;;;;;4973030;28;20412;-71
2022/07/04 10:37:24;;;;;;;6.03;4.17;;;27.00;99.90;;;;;;4972594;28;20424;-71
2022/07/04 10:39:51;;;;;;;4.80;3.17;;;27.30;99.90;;;;;;4972756;28;20405;-73
2022/07/04 10:42:34;;;;;;;7.13;4.47;;;27.30;99.90;;;;;;4967834;28;20182;-72
2022/07/04 10:45:03;;;;;;;11.27;4.33;;;27.10;99.90;;;;;;4953468;29;20417;-72
2022/07/04 10:47:30;;;;;;;12.50;4.40;;;27.20;99.90;;;;;;4952410;28;20416;-69
2022/07/04 10:49:56;;;;;;;8.97;3.77;;;27.20;99.90;;;;;;4954014;28;20409;-70
2022/07/04 10:52:22;;;;;;;13.03;4.60;;;27.40;99.90;;;;;;4955208;28;20413;-71
2022/07/04 10:54:48;;;;;;;16.00;4.30;;;27.40;99.90;;;;;;4952987;28;20421;-72
2022/07/04 10:57:24;;;;;;;20.10;5.33;;;27.60;99.90;;;;;;4953034;28;20277;-71
2022/07/04 11:00:00;;;;;;;11.07;3.70;;;27.60;99.90;;;;;;4967075;28;20598;-71
2022/07/04 11:02:38;;;;;;;10.90;4.50;;;27.70;99.90;;;;;;4973104;28;20901;-70
2022/07/04 11:05:11;;;;;;;12.70;3.80;;;27.90;99.90;;;;;;4972176;28;20415;-72
2022/07/04 11:07:36;;;;;;;4.50;3.30;;;27.90;99.90;;;;;;4954798;28;20925;-70
2022/07/04 11:10:16;;;;;;;6.80;3.70;;;27.70;99.90;;;;;;4971312;28;20499;-71
2022/07/04 11:12:54;;;;;;;11.13;4.13;;;27.30;99.90;;;;;;4970186;28;20304;-71
2022/07/04 11:15:28;;;;;;;22.50;5.00;;;27.20;99.90;;;;;;4972197;28;20404;-72
2022/07/04 11:17:57;;;;;;;7.20;3.33;;;27.20;99.90;;;;;;4971766;28;20755;-71
2022/07/04 11:20:24;;;;;;;6.97;3.93;;;27.10;99.90;;;;;;4972138;28;20913;-71
2022/07/04 11:22:50;;;;;;;5.80;3.70;;;27.00;99.90;;;;;;4970889;28;20412;-69
2022/07/04 11:25:16;;;;;;;4.00;3.70;;;27.10;99.90;;;;;;4971583;28;20475;-70
2022/07/04 11:27:42;;;;;;;9.93;3.60;;;26.90;99.90;;;;;;4971622;28;20254;-72
2022/07/04 11:30:09;;;;;;;10.00;5.43;;;26.90;99.90;;;;;;4971892;28;20193;-72
2022/07/04 11:32:36;;;;;;;5.30;3.10;;;26.70;99.90;;;;;;4968297;28;20441;-71
2022/07/04 11:35:05;;;;;;;5.30;3.57;;;26.80;99.90;;;;;;4954512;29;20484;-71
2022/07/04 11:37:31;;;;;;;4.10;3.50;;;26.90;99.90;;;;;;4953111;28;20438;-68
2022/07/04 11:45:49;;;;;;;5.30;3.53;;;26.50;99.90;;;;;;4971384;28;20406;-70
2022/07/04 11:48:25;;;;;;;7.93;3.60;;;26.60;99.90;;;;;;4968970;28;20425;-70
2022/07/04 11:50:52;;;;;;;4.53;3.80;;;26.50;99.90;;;;;;4971416;28;20200;-71
2022/07/04 11:53:18;;;;;;;4.30;4.00;;;26.60;99.90;;;;;;4966847;28;20502;-71
2022/07/04 11:55:55;;;;;;;11.50;5.60;;;26.50;99.90;;;;;;4964920;28;20851;-71
2022/07/04 11:58:22;;;;;;;9.90;5.07;;;26.80;99.90;;;;;;4961737;28;20451;-72
2022/07/04 12:00:48;;;;;;;13.10;5.50;;;27.00;99.90;;;;;;4960084;28;20433;-71
2022/07/04 12:03:14;;;;;;;13.97;5.00;;;27.00;99.90;;;;;;4958524;28;20417;-71
2022/07/04 12:05:40;;;;;;;14.13;5.30;;;26.90;99.90;;;;;;4961345;28;20294;-70
2022/07/04 12:08:07;;;;;;;5.50;3.70;;;27.00;99.90;;;;;;4958867;28;20181;-71
2022/07/04 12:10:34;;;;;;;4.23;3.30;;;26.90;99.90;;;;;;4959504;28;20218;-74
2022/07/04 12:13:14;;;;;;;3.57;3.13;;;26.30;99.90;;;;;;4960886;28;20419;-73
2022/07/04 12:15:41;;;;;;;4.20;3.53;;;26.20;99.90;;;;;;4961131;28;20428;-71
2022/07/04 12:18:16;;;;;;;4.70;3.40;;;26.00;99.90;;;;;;4959385;28;21494;-69
2022/07/04 12:20:41;;;;;;;4.23;3.37;;;26.00;99.90;;;;;;4959356;28;20428;-74
2022/07/04 12:23:09;;;;;;;9.63;5.20;;;26.30;99.90;;;;;;4961150;28;20409;-69
2022/07/04 12:25:38;;;;;;;5.43;3.87;;;26.50;99.90;;;;;;4976664;28;20170;-71
2022/07/04 12:28:11;;;;;;;5.10;4.60;;;26.50;99.90;;;;;;4958757;28;20797;-74
2022/07/04 12:30:40;;;;;;;3.30;3.00;;;26.60;99.90;;;;;;4962599;28;20502;-71
2022/07/04 12:33:08;;;;;;;10.00;3.87;;;26.30;99.90;;;;;;4959931;28;20883;-72
2022/07/04 12:35:47;;;;;;;13.07;4.50;;;26.20;99.90;;;;;;4963142;28;20419;-71
2022/07/04 12:38:22;;;;;;;24.10;6.20;;;26.40;99.90;;;;;;4961208;28;20495;-71
2022/07/04 12:40:53;;;;;;;25.03;7.60;;;26.80;99.90;;;;;;4969911;28;20851;-71
2022/07/04 12:43:20;;;;;;;7.10;4.00;;;27.10;99.90;;;;;;4961450;28;20460;-70
2022/07/04 12:45:55;;;;;;;6.30;4.53;;;27.10;99.90;;;;;;4960730;28;20404;-72
2022/07/04 12:48:26;;;;;;;3.60;3.30;;;27.00;99.90;;;;;;4958828;28;20447;-70
2022/07/04 12:50:53;;;;;;;10.83;3.80;;;26.70;99.90;;;;;;4960868;28;20437;-71
2022/07/04 12:53:19;;;;;;;8.43;4.63;;;26.60;99.90;;;;;;4962630;28;20429;-71
2022/07/04 12:55:47;;;;;;;3.87;3.50;;;26.60;99.90;;;;;;4963696;28;20418;-72
2022/07/04 12:58:13;;;;;;;10.53;3.47;;;26.40;99.90;;;;;;4960788;28;20531;-71
2022/07/04 13:00:40;;;;;;;6.03;3.77;;;26.20;99.90;;;;;;4961745;28;20421;-71
2022/07/04 13:03:07;;;;;;;3.23;2.93;;;26.10;99.90;;;;;;4961203;28;20463;-70
2022/07/04 13:05:37;;;;;;;4.33;3.80;;;26.10;99.90;;;;;;4960414;28;20431;-70